Mirabel, Canada
Current Conditions -  °F | °C
As of 3:00 AM on Thursday 29 Jan 2015 (Local Time) from CYMX Reporting Station
Scattered Clouds Scattered Clouds  
Wind Chill: -6°   Ceiling: Unl
Heat Index:   Visibility: 25mi
Dew Point: -8°   Wind: 6mph
Humidity: 56%   Direction: 260°W
Pressure: 30.29"   Gusts: NA
Location:  45.67°N, 73.98°W
Report Text: CYMX 290800Z 26005KT 25SM SCT250 M15/M22 A3029 RMK CI3 SLP265
Loading
Personal Weather Stations






























Interactive Weather Map New forecast layout! Learn more

10-Day Weather Forecast

Advertisements
Track Severe Weather on mobile